Flight Track Log - Related Links

Times and Time Zones

All times are in EDT time to prevent confusion due to time zone crossing. See the FLG4099 flight status page for this flight to view local times or setup timezone preferences in your user account.

Time Position Orientation Groundspeed Altitude Reporting Facility
EDT Latitude Longitude Course Direction KTS MPH feet Rate Location/Type
Mon 06:22:02 AM 44.4192 -73.2131 256° West 218 251 3,600  Level Boston Center
Mon 06:23:00 AM 44.3976 -73.5559 253° West  Level FlightAware Approximate
Mon 06:23:02 AM 44.4103 -73.2828 260° West 225 259 6,100  Level Boston Center
Mon 06:24:00 AM 44.3689 -73.6894 253° West  Level FlightAware Approximate
Mon 06:24:02 AM 44.3972 -73.3669 258° West 235 270 8,100  Level Boston Center
Mon 06:25:00 AM 44.3488 -73.8258 259° West  Level FlightAware Approximate
Mon 06:25:02 AM 44.3817 -73.4714 258° West 265 305 10,400  Level Boston Center
Mon 06:26:00 AM 44.3281 -73.9620 256° West  Level FlightAware Approximate
Mon 06:26:02 AM 44.3639 -73.5842 258° West 296 341 12,900  Level Boston Center
Mon 06:27:00 AM 44.3033 -74.0968 256° West  Level FlightAware Approximate
Mon 06:27:02 AM 44.3461 -73.6969 258° West 296 341 14,400  Level Boston Center
Mon 06:28:02 AM 44.3239 -73.8300 257° West 324 373 15,600 1,200 Climbing Boston Center
Mon 06:29:02 AM 44.2969 -73.9658 255° West 351 404 16,800 1,100 Climbing Boston Center
Mon 06:30:02 AM 44.2700 -74.1072 255° West 369 425 17,800 1,100 Climbing Boston Center
Mon 06:31:02 AM 44.2406 -74.2656 256° West 380 437 19,000 1,200 Climbing Boston Center
Mon 06:32:02 AM 44.2089 -74.4125 253° West 390 449 20,200 1,200 Climbing Boston Center
Mon 06:33:02 AM 44.1814 -74.5622 256° West 395 455 21,400 1,200 Climbing Boston Center
Mon 06:34:02 AM 44.1514 -74.7086 254° West 400 460 22,600 1,450 Climbing Boston Center
Mon 06:35:02 AM 44.0947 -74.8336 238° Southwest 381 438 24,300 1,600 Climbing Boston Center
Mon 06:36:02 AM 44.0258 -74.9406 228° Southwest 387 445 25,800 1,200 Climbing Boston Center
Mon 06:37:02 AM 43.9525 -75.0444 226° Southwest 387 445 26,700 900 Climbing Boston Center
Mon 06:38:02 AM 43.8836 -75.1422 226° Southwest 387 445 27,600 650 Climbing Boston Center
Mon 06:39:02 AM 43.8061 -75.2508 225° Southwest 393 452 28,000 200 Climbing Boston Center
Mon 06:40:02 AM 43.7219 -75.3647 224° Southwest 406 467 28,000 -50 Level Boston Center
Mon 06:41:02 AM 43.6722 -75.5089 245° Southwest 412 474 27,900  Descending Boston Center
Mon 06:42:02 AM 43.6447 -75.6739 257° West 420 483 28,000 50 Climbing Boston Center
Mon 06:43:02 AM 43.6211 -75.8389 259° West 437 503 28,000  Level Boston Center
Mon 06:44:02 AM 43.5931 -76.0067 257° West 449 517 28,000  Level Boston Center
Mon 06:45:39 AM 43.5500 -76.2894 258° West 438 504 28,000  Level Cleveland Center
Mon 06:46:36 AM 43.5244 -76.4458 257° West 458 527 28,000  Level Cleveland Center
Mon 06:47:36 AM 43.4969 -76.6167 258° West 458 527 28,000  Level Cleveland Center
Mon 06:48:38 AM 43.4692 -76.7872 257° West 458 527 28,000  Level Cleveland Center
Mon 06:49:50 AM 43.4167 -77.0000 251° West 460 529 28,000  Level Toronto Center
Mon 06:50:36 AM 43.4075 -77.1425 265° West 453 521 28,000  Level Cleveland Center
Mon 06:51:38 AM 43.3769 -77.3128 256° West 453 521 28,000  Level Cleveland Center
Mon 06:52:36 AM 43.3483 -77.4828 257° West 453 521 28,000  Level Cleveland Center
Mon 06:53:37 AM 43.3192 -77.6528 257° West 453 521 28,000  Level Cleveland Center
Mon 06:54:39 AM 43.2900 -77.8194 257° West 453 521 28,000  Level Cleveland Center
Mon 06:55:36 AM 43.2608 -77.9919 257° West 453 521 28,000  Level Cleveland Center
Mon 06:56:37 AM 43.2311 -78.1611 256° West 458 527 28,000  Level Cleveland Center
Mon 06:57:38 AM 43.2011 -78.3275 256° West 458 527 28,000  Level Cleveland Center
Mon 06:58:38 AM 43.1708 -78.4967 256° West 458 527 28,000  Level Cleveland Center
Mon 06:59:37 AM 43.1422 -78.6542 256° West 458 527 28,000  Level Cleveland Center
Mon 07:00:38 AM 43.0969 -78.8119 249° West 458 527 28,000  Level Cleveland Center
Mon 07:01:50 AM 43.0000 -79.0000 235° Southwest 460 529 28,000  Level Toronto Center
Mon 07:02:50 AM 42.9333 -79.1333 236° Southwest 460 529 28,000  Level Toronto Center
Mon 07:03:50 AM 42.8500 -79.3000 236° Southwest 460 529 28,000  Level Toronto Center
Mon 07:04:36 AM 42.8397 -79.4111 263° West 464 534 28,000  Level Cleveland Center
Mon 07:05:37 AM 42.8289 -79.5867 265° West 455 524 28,000  Level Cleveland Center
Mon 07:06:37 AM 42.8136 -79.7597 263° West 461 531 28,000  Level Cleveland Center
Mon 07:07:38 AM 42.8003 -79.9294 264° West 461 531 28,000  Level Cleveland Center
Mon 07:08:38 AM 42.7781 -80.1053 260° West 469 540 28,000  Level Cleveland Center
Mon 07:09:36 AM 42.7642 -80.2806 264° West 464 534 28,000  Level Cleveland Center
Mon 07:10:37 AM 42.7478 -80.4531 263° West 464 534 28,000  Level Cleveland Center
Mon 07:11:36 AM 42.7311 -80.6256 263° West 472 543 28,000 -50 Level Cleveland Center
Mon 07:12:36 AM 42.7164 -80.7981 263° West 466 536 27,900 -942 Descending Cleveland Center
Mon 07:13:37 AM 42.6992 -80.9731 262° West 466 536 26,100 -1,835 Descending Cleveland Center
Mon 07:14:37 AM 42.6797 -81.1425 261° West 466 536 24,200 -1,361 Descending Cleveland Center
Mon 07:15:36 AM 42.6581 -81.3089 260° West 450 518 23,400 -1,091 Descending Cleveland Center
Mon 07:16:38 AM 42.6422 -81.4639 262° West 417 480 22,000 -700 Descending Cleveland Center
Mon 07:17:36 AM 42.6244 -81.6103 261° West 410 472 22,000  Level Cleveland Center
Mon 07:18:36 AM 42.6064 -81.7594 261° West 405 466 22,000 -545 Level Cleveland Center
Mon 07:19:37 AM 42.5881 -81.9003 260° West 405 466 20,900 -1,623 Descending Cleveland Center
Mon 07:20:38 AM 42.5697 -82.0464 260° West 405 466 18,700 -2,168 Descending Cleveland Center
Mon 07:21:36 AM 42.5533 -82.1842 261° West 398 458 16,600 -2,114 Descending Cleveland Center
Mon 07:22:06 AM 42.5439 -82.2544 260° West 356 410 15,600 -1,800 Descending Cleveland Center
Mon 07:22:36 AM 42.5367 -82.3189 261° West 379 436 14,800 -1,714 Descending Cleveland Center
Mon 07:22:55 AM 42.5317 -82.3694 262° West 358 412 14,200 -1,672 Descending Cleveland Center
Mon 07:23:37 AM 42.5200 -82.4536 259° West 368 423 13,100 -1,672 Descending Cleveland Center
Mon 07:23:56 AM 42.5150 -82.5014 262° West 359 413 12,500 -1,082 Descending Cleveland Center
Mon 07:24:38 AM 42.4950 -82.5797 251° West 362 417 12,000 -469 Descending Cleveland Center
Mon 07:25:00 AM 42.4817 -82.6186 245° Southwest 338 389 12,000  Level Cleveland Center
Mon 07:25:36 AM 42.4553 -82.6939 245° Southwest 354 407 12,000  Level Cleveland Center
Mon 07:25:54 AM 42.4444 -82.7300 248° West 339 390 12,000  Level Cleveland Center
Mon 07:26:37 AM 42.4136 -82.8106 243° Southwest 348 400 12,000  Level Cleveland Center
Mon 07:26:52 AM 42.4025 -82.8439 246° West 343 395 12,000  Level Cleveland Center
Mon 07:27:38 AM 42.3717 -82.9272 243° Southwest 348 400 12,000  Level Cleveland Center
Mon 07:27:56 AM 42.3628 -82.9606 250° West 345 397 12,000  Level Cleveland Center
Mon 07:28:39 AM 42.3297 -83.0408 241° Southwest 348 400 12,000  Level Cleveland Center
Mon 07:28:57 AM 42.3186 -83.0739 246° West 342 394 12,000 -737 Level Cleveland Center
Mon 07:29:36 AM 42.2875 -83.1542 242° Southwest 342 394 11,300 -1,000 Descending Cleveland Center
Mon 07:29:57 AM 42.2661 -83.1842 226° Southwest 317 365 11,000 -400 Descending Cleveland Center
Mon 07:30:36 AM 42.2175 -83.2103 202° Southwest 309 356 10,900 -627 Descending Cleveland Center
Mon 07:31:04 AM 42.1900 -83.2344 213° Southwest 278 320 10,300 -1,180 Descending Cleveland Center
Mon 07:31:37 AM 42.1603 -83.2500 201° Southwest 299 344 9,700 -2,000 Descending Cleveland Center
Mon 07:31:58 AM 42.1222 -83.2764 207° Southwest 277 319 8,500 -2,684 Descending Cleveland Center
Mon 07:32:53 AM 42.0608 -83.3186 207° Southwest 272 313 6,300 -1,672 Descending Cleveland Center
Mon 07:34:00 AM 42.0214 -83.3978 236° Southwest 265 305 5,100 -1,078 Descending Cleveland Center
Mon 07:35:01 AM 42.0808 -83.4342 336° Northwest 221 254 4,000 -1,190 Descending Cleveland Center
Mon 07:36:01 AM 42.1275 -83.4025 27° Northeast 167 192 2,700 -1,357 Descending Cleveland Center
Mon 07:36:56 AM 42.1636 -83.3761 28° Northeast 143 165 1,400 -1,418 Descending Cleveland Center

Login

Don't have an account? Register now (free) for customized features, flight alerts, and more!